Observation data for Silverton on 02/24/2021      Previous  Date  Next       Current Mesonet Observations  Soil Data  Daily Summary Page  Observations in Plain Language
KSVS 240600Z 27015KT 11/M08 A298 RMK A01 T01101081  RH  025%=      5-min Rain = 0
KSVS 240605Z 26016KT 11/M08 A298 RMK A01 T01091080  RH  026%=      5-min Rain = 0
KSVS 240610Z 26017KT 11/M08 A2979 RMK A01 T01081080  RH  026%=      5-min Rain = 0
KSVS 240615Z 26017G22KT 11/M08 A298 RMK A01 T01091079  RH  026%=      5-min Rain = 0
KSVS 240620Z 26017KT 11/M08 A298 RMK A01 T01091079  RH  026%=      5-min Rain = 0
KSVS 240625Z 26018KT 11/M08 A298 RMK A01 T01111079  RH  026%=      5-min Rain = 0
KSVS 240630Z 26017KT 11/M08 A298 RMK A01 T01111078  RH  026%=      5-min Rain = 0
KSVS 240635Z 26017KT 11/M08 A2981 RMK A01 T01121078  RH  026%=      5-min Rain = 0
KSVS 240640Z 26017G22KT 11/M08 A2981 RMK A01 T01141078  RH  025%=      5-min Rain = 0
KSVS 240645Z 27016KT 11/M08 A2981 RMK A01 T01141077  RH  025%=      5-min Rain = 0
KSVS 240650Z 27017KT 11/M08 A2981 RMK A01 T01131076  RH  026%=      5-min Rain = 0
KSVS 240655Z 27017KT 11/M08 A2982 RMK A01 T01141075  RH  026%=      5-min Rain = 0
KSVS 240700Z 29016KT 11/M07 A2983 RMK A01 T01121074  RH  026%=      5-min Rain = 0
KSVS 240705Z 29019G26KT 11/M07 A2984 RMK A01 T01121073  RH  027%=      5-min Rain = 0
KSVS 240710Z 29021G26KT 12/M07 A2984 RMK A01 T01181073  RH  026%=      5-min Rain = 0
KSVS 240715Z 29020G25KT 12/M07 A2985 RMK A01 T01151070  RH  027%=      5-min Rain = 0
KSVS 240720Z 30022G28KT 12/M07 A2985 RMK A01 T01161066  RH  027%=      5-min Rain = 0
KSVS 240725Z 30021KT 11/M06 A2986 RMK A01 T01121057  RH  030%=      5-min Rain = 0
KSVS 240730Z 31020KT 11/M05 A2987 RMK A01 T01091051  RH  032%=      5-min Rain = 0
KSVS 240735Z 32020KT 11/M05 A2987 RMK A01 T01071047  RH  034%=      5-min Rain = 0
KSVS 240740Z 33020G25KT 11/M04 A2988 RMK A01 T01061044  RH  035%=      5-min Rain = 0
KSVS 240745Z 33024G29KT 11/M04 A2989 RMK A01 T01061041  RH  035%=      5-min Rain = 0
KSVS 240750Z 34021G28KT 10/M04 A299 RMK A01 T01011038  RH  037%=      5-min Rain = 0
KSVS 240755Z 34022G29KT 10/M04 A299 RMK A01 T00981036  RH  039%=      5-min Rain = 0
KSVS 240800Z 34023G30KT 10/M04 A2991 RMK A01 T00951036  RH  040%=      5-min Rain = 0
KSVS 240805Z 35022G29KT 09/M04 A2991 RMK A01 T00931036  RH  040%=      5-min Rain = 0
KSVS 240810Z 35024G33KT 09/M04 A2991 RMK A01 T00921037  RH  040%=      5-min Rain = 0
KSVS 240815Z 35024G32KT 09/M04 A2992 RMK A01 T00901037  RH  041%=      5-min Rain = 0
KSVS 240820Z 35024G29KT 09/M04 A2993 RMK A01 T00891037  RH  041%=      5-min Rain = 0
KSVS 240825Z 36024G31KT 09/M04 A2993 RMK A01 T00881037  RH  041%=      5-min Rain = 0
KSVS 240830Z 35024G30KT 09/M04 A2993 RMK A01 T00871037  RH  042%=      5-min Rain = 0
KSVS 240835Z 35022G30KT 09/M04 A2993 RMK A01 T00851038  RH  042%=      5-min Rain = 0
KSVS 240840Z 36024G29KT 09/M04 A2993 RMK A01 T00851038  RH  042%=      5-min Rain = 0
KSVS 240845Z 36025G31KT 09/M04 A2993 RMK A01 T00851039  RH  042%=      5-min Rain = 0
KSVS 240850Z 36024G33KT 08/M04 A2994 RMK A01 T00831039  RH  042%=      5-min Rain = 0
KSVS 240855Z 36024G30KT 08/M04 A2994 RMK A01 T00821040  RH  042%=      5-min Rain = 0
KSVS 240900Z 36025G32KT 08/M04 A2994 RMK A01 T00821041  RH  042%=      5-min Rain = 0
KSVS 240905Z 35024G30KT 08/M04 A2995 RMK A01 T00811042  RH  042%=      5-min Rain = 0
KSVS 240910Z 35022G27KT 08/M04 A2996 RMK A01 T00791043  RH  042%=      5-min Rain = 0
KSVS 240915Z 35022G29KT 08/M04 A2996 RMK A01 T00791044  RH  042%=      5-min Rain = 0
KSVS 240920Z 35021G26KT 08/M04 A2996 RMK A01 T00781044  RH  042%=      5-min Rain = 0
KSVS 240925Z 35019G24KT 08/M04 A2996 RMK A01 T00771044  RH  042%=      5-min Rain = 0
KSVS 240930Z 35021G26KT 08/M05 A2996 RMK A01 T00761045  RH  042%=      5-min Rain = 0
KSVS 240935Z 35019G26KT 07/M05 A2996 RMK A01 T00741045  RH  043%=      5-min Rain = 0
KSVS 240940Z 35020G25KT 07/M05 A2997 RMK A01 T00741045  RH  043%=      5-min Rain = 0
KSVS 240945Z 35019KT 07/M05 A2997 RMK A01 T00731045  RH  043%=      5-min Rain = 0
KSVS 240950Z 35017G22KT 07/M05 A2997 RMK A01 T00701046  RH  044%=      5-min Rain = 0
KSVS 240955Z 35018KT 07/M05 A2998 RMK A01 T00691046  RH  044%=      5-min Rain = 0
KSVS 241000Z 35019G25KT 07/M05 A2998 RMK A01 T00701045  RH  044%=      5-min Rain = 0
KSVS 241005Z 35019KT 07/M05 A2998 RMK A01 T00681045  RH  044%=      5-min Rain = 0
KSVS 241010Z 35019G24KT 07/M05 A2998 RMK A01 T00661046  RH  045%=      5-min Rain = 0
KSVS 241015Z 35018G23KT 07/M05 A2998 RMK A01 T00651045  RH  046%=      5-min Rain = 0
KSVS 241020Z 35017G22KT 06/M04 A2999 RMK A01 T00641044  RH  046%=      5-min Rain = 0
KSVS 241025Z 35016KT 06/M04 A2999 RMK A01 T00621044  RH  047%=      5-min Rain = 0
KSVS 241030Z 35016KT 06/M04 A30 RMK A01 T00611043  RH  047%=      5-min Rain = 0
KSVS 241035Z 35017KT 06/M04 A30 RMK A01 T00601043  RH  048%=      5-min Rain = 0
KSVS 241040Z 35017KT 06/M04 A30 RMK A01 T00601042  RH  048%=      5-min Rain = 0
KSVS 241045Z 35016KT 06/M04 A3001 RMK A01 T00591041  RH  049%=      5-min Rain = 0
KSVS 241050Z 35018G23KT 06/M04 A3001 RMK A01 T00601040  RH  049%=      5-min Rain = 0
KSVS 241055Z 35019G25KT 06/M04 A3001 RMK A01 T00601040  RH  049%=      5-min Rain = 0
KSVS 241100Z 36018G23KT 06/M04 A3001 RMK A01 T00591040  RH  049%=      5-min Rain = 0
KSVS 241105Z 35017KT 06/M04 A3001 RMK A01 T00581040  RH  049%=      5-min Rain = 0
KSVS 241110Z 35017KT 06/M04 A3002 RMK A01 T00581040  RH  050%=      5-min Rain = 0
KSVS 241115Z 34017KT 06/M04 A3002 RMK A01 T00571041  RH  050%=      5-min Rain = 0
KSVS 241120Z 34016KT 05/M04 A3003 RMK A01 T00541041  RH  050%=      5-min Rain = 0
KSVS 241125Z 35015KT 05/M04 A3003 RMK A01 T00541041  RH  051%=      5-min Rain = 0
KSVS 241130Z 35017G25KT 06/M04 A3003 RMK A01 T00551041  RH  050%=      5-min Rain = 0
KSVS 241135Z 00016G22KT 06/M04 A3003 RMK A01 T00571042  RH  049%=      5-min Rain = 0
KSVS 241140Z 35020G26KT 06/M04 A3003 RMK A01 T00591042  RH  049%=      5-min Rain = 0
KSVS 241145Z 36019G26KT 06/M04 A3004 RMK A01 T00601043  RH  048%=      5-min Rain = 0
KSVS 241150Z 35018G24KT 06/M04 A3005 RMK A01 T00591044  RH  048%=      5-min Rain = 0
KSVS 241155Z 35017G24KT 06/M04 A3005 RMK A01 T00561044  RH  049%=      5-min Rain = 0
KSVS 241200Z 35018G23KT 06/M04 A3006 RMK A01 T00561044  RH  049%=      5-min Rain = 0
KSVS 241205Z 35018G29KT 05/M04 A3006 RMK A01 T00541043  RH  050%=      5-min Rain = 0
KSVS 241210Z 35019G30KT 05/M04 A3006 RMK A01 T00541043  RH  050%=      5-min Rain = 0
KSVS 241215Z 35018G25KT 05/M04 A3006 RMK A01 T00541042  RH  050%=      5-min Rain = 0
KSVS 241220Z 36016KT 05/M04 A3006 RMK A01 T00501041  RH  052%=      5-min Rain = 0
KSVS 241225Z 00014G20KT 05/M04 A3006 RMK A01 T00471042  RH  053%=      5-min Rain = 0
KSVS 241230Z 36017G22KT 05/M04 A3006 RMK A01 T00471041  RH  053%=      5-min Rain = 0
KSVS 241235Z 35019G25KT 05/M04 A3007 RMK A01 T00491040  RH  053%=      5-min Rain = 0
KSVS 241240Z 36018G23KT 05/M04 A3007 RMK A01 T00461041  RH  054%=      5-min Rain = 0
KSVS 241245Z 00017KT 04/M04 A3008 RMK A01 T00431040  RH  055%=      5-min Rain = 0
KSVS 241250Z 00017G22KT 04/M04 A3008 RMK A01 T00421039  RH  056%=      5-min Rain = 0
KSVS 241255Z 00018G23KT 04/M04 A3009 RMK A01 T00401037  RH  058%=      5-min Rain = 0
KSVS 241300Z 36017G22KT 04/M04 A3009 RMK A01 T00391036  RH  058%=      5-min Rain = 0
KSVS 241305Z 36017KT 04/M04 A3009 RMK A01 T00361036  RH  059%=      5-min Rain = 0
KSVS 241310Z 36017KT 04/M03 A3009 RMK A01 T00351034  RH  061%=      5-min Rain = 0
KSVS 241315Z 36017G22KT 04/M03 A3009 RMK A01 T00351033  RH  062%=      5-min Rain = 0
KSVS 241320Z 36017G23KT 03/M03 A3009 RMK A01 T00331032  RH  062%=      5-min Rain = 0
KSVS 241325Z 36016KT 03/M03 A3009 RMK A01 T00321032  RH  063%=      5-min Rain = 0
KSVS 241330Z 36016KT 03/M03 A301 RMK A01 T00321032  RH  064%=      5-min Rain = 0
KSVS 241335Z 36016KT 03/M03 A301 RMK A01 T00311031  RH  064%=      5-min Rain = 0
KSVS 241340Z 36017KT 03/M03 A301 RMK A01 T00321031  RH  064%=      5-min Rain = 0
KSVS 241345Z 36017KT 03/M03 A3011 RMK A01 T00321031  RH  064%=      5-min Rain = 0
KSVS 241350Z 36016G21KT 03/M03 A3011 RMK A01 T00331030  RH  063%=      5-min Rain = 0
KSVS 241355Z 35017G25KT 04/M03 A3011 RMK A01 T00351030  RH  063%=      5-min Rain = 0
KSVS 241400Z 36016G21KT 04/M03 A3012 RMK A01 T00361030  RH  062%=      5-min Rain = 0
KSVS 241405Z 35017KT 04/M03 A3013 RMK A01 T00371031  RH  062%=      5-min Rain = 0
KSVS 241410Z 35017G23KT 04/M03 A3013 RMK A01 T00371032  RH  061%=      5-min Rain = 0
KSVS 241415Z 35017G22KT 04/M03 A3014 RMK A01 T00391032  RH  060%=      5-min Rain = 0
KSVS 241420Z 35018KT 04/M03 A3014 RMK A01 T00391033  RH  059%=      5-min Rain = 0
KSVS 241425Z 35019G24KT 04/M04 A3014 RMK A01 T00391035  RH  059%=      5-min Rain = 0
KSVS 241430Z 35020G25KT 04/M04 A3015 RMK A01 T00401037  RH  057%=      5-min Rain = 0
KSVS 241435Z 36020G25KT 04/M04 A3015 RMK A01 T00411038  RH  056%=      5-min Rain = 0
KSVS 241440Z 36020KT 04/M04 A3015 RMK A01 T00421040  RH  056%=      5-min Rain = 0
KSVS 241445Z 36020G27KT 04/M04 A3015 RMK A01 T00431040  RH  055%=      5-min Rain = 0
KSVS 241450Z 36018G25KT 05/M04 A3015 RMK A01 T00451040  RH  054%=      5-min Rain = 0
KSVS 241455Z 36022KT 04/M04 A3015 RMK A01 T00431043  RH  054%=      5-min Rain = 0
KSVS 241500Z 36020KT 04/M04 A3016 RMK A01 T00441043  RH  054%=      5-min Rain = 0
KSVS 241505Z 36020KT 05/M04 A3016 RMK A01 T00451043  RH  053%=      5-min Rain = 0
KSVS 241510Z 36020KT 05/M04 A3017 RMK A01 T00451043  RH  053%=      5-min Rain = 0
KSVS 241515Z 00019G24KT 05/M04 A3017 RMK A01 T00471043  RH  052%=      5-min Rain = 0
KSVS 241520Z 36020KT 05/M04 A3017 RMK A01 T00491043  RH  052%=      5-min Rain = 0
KSVS 241525Z 00018KT 05/M04 A3018 RMK A01 T00501043  RH  051%=      5-min Rain = 0
KSVS 241530Z 36019KT 05/M04 A3018 RMK A01 T00501043  RH  051%=      5-min Rain = 0
KSVS 241535Z 36017G22KT 05/M04 A3018 RMK A01 T00531041  RH  051%=      5-min Rain = 0
KSVS 241540Z 36018KT 06/M04 A3019 RMK A01 T00551042  RH  050%=      5-min Rain = 0
KSVS 241545Z 36017KT 06/M04 A3019 RMK A01 T00561042  RH  050%=      5-min Rain = 0
KSVS 241550Z 36018KT 06/M04 A3019 RMK A01 T00581041  RH  049%=      5-min Rain = 0
KSVS 241555Z 36017G23KT 06/M04 A3018 RMK A01 T00601040  RH  049%=      5-min Rain = 0
KSVS 241600Z 36018KT 06/M04 A3018 RMK A01 T00631041  RH  047%=      5-min Rain = 0
KSVS 241605Z 00019KT 07/M04 A3018 RMK A01 T00651043  RH  046%=      5-min Rain = 0
KSVS 241610Z 35016G21KT 07/M04 A3018 RMK A01 T00681040  RH  046%=      5-min Rain = 0
KSVS 241615Z 36019G24KT 07/M04 A3018 RMK A01 T00701042  RH  045%=      5-min Rain = 0
KSVS 241620Z 00018G23KT 07/M04 A3018 RMK A01 T00701042  RH  045%=      5-min Rain = 0
KSVS 241625Z 01017KT 07/M04 A3019 RMK A01 T00711044  RH  044%=      5-min Rain = 0
KSVS 241630Z 00015KT 08/M04 A3019 RMK A01 T00751041  RH  044%=      5-min Rain = 0
KSVS 241635Z 01015G20KT 08/M04 A3019 RMK A01 T00761042  RH  043%=      5-min Rain = 0
KSVS 241640Z 01013KT 08/M04 A3019 RMK A01 T00771041  RH  043%=      5-min Rain = 0
KSVS 241645Z 02014KT 08/M04 A3019 RMK A01 T00781042  RH  042%=      5-min Rain = 0
KSVS 241650Z 02013KT 08/M04 A3019 RMK A01 T00801041  RH  042%=      5-min Rain = 0
KSVS 241655Z 01014G19KT 08/M04 A3019 RMK A01 T00821040  RH  042%=      5-min Rain = 0
KSVS 241700Z 01014KT 08/M04 A3019 RMK A01 T00821041  RH  042%=      5-min Rain = 0
KSVS 241705Z 02013G18KT 08/M04 A3019 RMK A01 T00841041  RH  041%=      5-min Rain = 0
KSVS 241710Z 02013G18KT 08/M04 A3019 RMK A01 T00841040  RH  041%=      5-min Rain = 0
KSVS 241715Z 02013G18KT 09/M04 A3019 RMK A01 T00881040  RH  040%=      5-min Rain = 0
KSVS 241720Z 01015KT 09/M04 A3019 RMK A01 T00851041  RH  041%=      5-min Rain = 0
KSVS 241725Z 01012KT 09/M04 A3019 RMK A01 T00861041  RH  041%=      5-min Rain = 0
KSVS 241730Z 01013KT 09/M04 A3019 RMK A01 T00901039  RH  040%=      5-min Rain = 0
KSVS 241735Z 01013KT 09/M04 A3019 RMK A01 T00891040  RH  040%=      5-min Rain = 0
KSVS 241740Z 03013KT 09/M04 A3018 RMK A01 T00921040  RH  039%=      5-min Rain = 0
KSVS 241745Z 02013G19KT 09/M04 A3019 RMK A01 T00941039  RH  039%=      5-min Rain = 0
KSVS 241750Z 01012G17KT 09/M04 A3019 RMK A01 T00921040  RH  039%=      5-min Rain = 0
KSVS 241755Z 04012KT 10/M04 A3019 RMK A01 T00961039  RH  039%=      5-min Rain = 0
KSVS 241800Z 03012G17KT 10/M04 A3019 RMK A01 T00951041  RH  038%=      5-min Rain = 0
KSVS 241805Z 03010G15KT 10/M04 A3019 RMK A01 T00961040  RH  038%=      5-min Rain = 0
KSVS 241810Z 02012KT 10/M04 A3019 RMK A01 T00991041  RH  037%=      5-min Rain = 0
KSVS 241815Z 03012G17KT 10/M04 A3019 RMK A01 T01011043  RH  036%=      5-min Rain = 0
KSVS 241820Z 03012KT 10/M04 A3018 RMK A01 T01011042  RH  036%=      5-min Rain = 0
KSVS 241825Z 02012G17KT 10/M04 A3018 RMK A01 T01021043  RH  036%=      5-min Rain = 0
KSVS 241830Z 04012G17KT 11/M04 A3018 RMK A01 T01071043  RH  035%=      5-min Rain = 0
KSVS 241835Z 02010G15KT 10/M05 A3018 RMK A01 T01021045  RH  035%=      5-min Rain = 0
KSVS 241840Z 04012KT 11/M04 A3017 RMK A01 T01071044  RH  035%=      5-min Rain = 0
KSVS 241845Z 02012G17KT 11/M05 A3017 RMK A01 T01071047  RH  033%=      5-min Rain = 0
KSVS 241850Z 04012KT 11/M05 A3017 RMK A01 T01111049  RH  032%=      5-min Rain = 0
KSVS 241855Z 04012G17KT 11/M05 A3016 RMK A01 T01111049  RH  032%=      5-min Rain = 0
KSVS 241900Z 03011KT 11/M05 A3016 RMK A01 T01111049  RH  032%=      5-min Rain = 0
KSVS 241905Z 02011KT 11/M05 A3016 RMK A01 T01111050  RH  032%=      5-min Rain = 0
KSVS 241910Z 04012G19KT 11/M05 A3016 RMK A01 T01121049  RH  032%=      5-min Rain = 0
KSVS 241915Z 03013G18KT 12/M05 A3016 RMK A01 T01161053  RH  030%=      5-min Rain = 0
KSVS 241920Z 04011G16KT 12/M06 A3015 RMK A01 T01151055  RH  030%=      5-min Rain = 0
KSVS 241925Z 04012G17KT 12/M06 A3015 RMK A01 T01191056  RH  029%=      5-min Rain = 0
KSVS 241930Z 04011G16KT 12/M06 A3015 RMK A01 T01181055  RH  029%=      5-min Rain = 0
KSVS 241935Z 03012KT 12/M06 A3015 RMK A01 T01231064  RH  027%=      5-min Rain = 0
KSVS 241940Z 03012G17KT 12/M06 A3015 RMK A01 T01241061  RH  027%=      5-min Rain = 0
KSVS 241945Z 03010G16KT 12/M07 A3015 RMK A01 T01221065  RH  027%=      5-min Rain = 0
KSVS 241950Z 04013G18KT 12/M08 A3015 RMK A01 T01241075  RH  024%=      5-min Rain = 0
KSVS 241955Z 05011G17KT 12/M08 A3015 RMK A01 T01221076  RH  024%=      5-min Rain = 0
KSVS 242000Z 06012KT 12/M08 A3014 RMK A01 T01241081  RH  023%=      5-min Rain = 0
KSVS 242005Z 03012G17KT 13/M07 A3014 RMK A01 T01251074  RH  024%=      5-min Rain = 0
KSVS 242010Z 04013G18KT 13/M08 A3013 RMK A01 T01301078  RH  023%=      5-min Rain = 0
KSVS 242015Z 03013G19KT 13/M08 A3013 RMK A01 T01261079  RH  023%=      5-min Rain = 0
KSVS 242020Z 03013G18KT 12/M08 A3013 RMK A01 T01241079  RH  023%=      5-min Rain = 0
KSVS 242025Z 04012KT 13/M08 A3013 RMK A01 T01291075  RH  024%=      5-min Rain = 0
KSVS 242030Z 06013G20KT 13/M08 A3012 RMK A01 T01301080  RH  022%=      5-min Rain = 0
KSVS 242035Z 05010G16KT 13/M08 A3012 RMK A01 T01281083  RH  022%=      5-min Rain = 0
KSVS 242040Z 05012G18KT 13/M08 A3012 RMK A01 T01331079  RH  022%=      5-min Rain = 0
KSVS 242045Z 05013G21KT 13/M08 A3012 RMK A01 T01321080  RH  022%=      5-min Rain = 0
KSVS 242050Z 05013G19KT 13/M08 A3012 RMK A01 T01301080  RH  022%=      5-min Rain = 0
KSVS 242055Z 06012G17KT 13/M08 A3012 RMK A01 T01321079  RH  022%=      5-min Rain = 0
KSVS 242100Z 04012KT 13/M08 A3012 RMK A01 T01331079  RH  022%=      5-min Rain = 0
KSVS 242105Z 05013G20KT 13/M08 A3012 RMK A01 T01341079  RH  022%=      5-min Rain = 0
KSVS 242110Z 05012G18KT 13/M08 A3012 RMK A01 T01331083  RH  021%=      5-min Rain = 0
KSVS 242115Z 06011G16KT 13/M08 A3012 RMK A01 T01331083  RH  022%=      5-min Rain = 0
KSVS 242120Z 06010KT 14/M08 A3012 RMK A01 T01371080  RH  021%=      5-min Rain = 0
KSVS 242125Z 07011G17KT 14/M08 A3012 RMK A01 T01381084  RH  021%=      5-min Rain = 0
KSVS 242130Z 05010G18KT 14/M09 A3012 RMK A01 T01381085  RH  021%=      5-min Rain = 0
KSVS 242135Z 07012G19KT 14/M09 A3012 RMK A01 T01361088  RH  020%=      5-min Rain = 0
KSVS 242140Z 07012G18KT 14/M09 A3011 RMK A01 T01361089  RH  020%=      5-min Rain = 0
KSVS 242145Z 09011G16KT 14/M09 A3011 RMK A01 T01381090  RH  020%=      5-min Rain = 0
KSVS 242150Z 08008KT 14/M09 A3011 RMK A01 T01371087  RH  020%=      5-min Rain = 0
KSVS 242155Z 06011G17KT 14/M09 A3011 RMK A01 T01401086  RH  020%=      5-min Rain = 0
KSVS 242200Z 07011KT 14/M09 A3011 RMK A01 T01381087  RH  020%=      5-min Rain = 0
KSVS 242205Z 07012KT 13/M09 A3011 RMK A01 T01341089  RH  020%=      5-min Rain = 0
KSVS 242210Z 07013G18KT 13/M09 A3011 RMK A01 T01341089  RH  020%=      5-min Rain = 0
KSVS 242215Z 07013KT 14/M09 A3011 RMK A01 T01351087  RH  021%=      5-min Rain = 0
KSVS 242220Z 09011G16KT 14/M09 A3011 RMK A01 T01351088  RH  020%=      5-min Rain = 0
KSVS 242225Z 06011KT 14/M09 A3011 RMK A01 T01351091  RH  020%=      5-min Rain = 0
KSVS 242230Z 06012G17KT 14/M09 A3011 RMK A01 T01351090  RH  020%=      5-min Rain = 0
KSVS 242235Z 07013G18KT 14/M09 A3011 RMK A01 T01351092  RH  020%=      5-min Rain = 0
KSVS 242240Z 07009G14KT 14/M09 A3011 RMK A01 T01351092  RH  020%=      5-min Rain = 0
KSVS 242245Z 09012KT 13/M09 A3011 RMK A01 T01341090  RH  020%=      5-min Rain = 0
KSVS 242250Z 09010KT 13/M09 A3011 RMK A01 T01321092  RH  020%=      5-min Rain = 0
KSVS 242255Z 08011KT 13/M09 A3011 RMK A01 T01321089  RH  021%=      5-min Rain = 0
KSVS 242300Z 07009KT 13/M09 A3011 RMK A01 T01321090  RH  020%=      5-min Rain = 0
KSVS 242305Z 09007G14KT 13/M09 A3011 RMK A01 T01291091  RH  021%=      5-min Rain = 0
KSVS 242310Z 08011KT 13/M09 A3011 RMK A01 T01291088  RH  021%=      5-min Rain = 0
KSVS 242315Z 07012KT 13/M09 A3011 RMK A01 T01281089  RH  021%=      5-min Rain = 0
KSVS 242320Z 07011KT 13/M09 A3011 RMK A01 T01271087  RH  022%=      5-min Rain = 0
KSVS 242325Z 07012KT 13/M09 A3011 RMK A01 T01261088  RH  022%=      5-min Rain = 0
KSVS 242330Z 07011KT 12/M09 A3011 RMK A01 T01241086  RH  022%=      5-min Rain = 0
KSVS 242335Z 08012KT 12/M09 A3011 RMK A01 T01231086  RH  022%=      5-min Rain = 0
KSVS 242340Z 08010KT 12/M09 A3012 RMK A01 T01211086  RH  023%=      5-min Rain = 0
KSVS 242345Z 07010KT 12/M09 A3012 RMK A01 T01201086  RH  023%=      5-min Rain = 0
KSVS 242350Z 07010KT 12/M09 A3012 RMK A01 T01181088  RH  023%=      5-min Rain = 0
KSVS 242355Z 08010KT 12/M09 A3012 RMK A01 T01171087  RH  023%=      5-min Rain = 0
KSVS 250000Z 08011KT 11/M09 A3012 RMK A01 T01141086  RH  024%=      5-min Rain = 0
KSVS 250005Z 08010KT 11/M09 A3012 RMK A01 T01121085  RH  024%=      5-min Rain = 0
KSVS 250010Z 07010KT 11/M09 A3013 RMK A01 T01091086  RH  024%=      5-min Rain = 0
KSVS 250015Z 08009KT 11/M08 A3013 RMK A01 T01061083  RH  026%=      5-min Rain = 0
KSVS 250020Z 07008KT 10/M08 A3013 RMK A01 T01021083  RH  026%=      5-min Rain = 0
KSVS 250025Z 08008KT 10/M08 A3013 RMK A01 T00951082  RH  028%=      5-min Rain = 0
KSVS 250030Z 07008KT 09/M08 A3013 RMK A01 T00921083  RH  028%=      5-min Rain = 0
KSVS 250035Z 07008KT 09/M08 A3014 RMK A01 T00871084  RH  029%=      5-min Rain = 0
KSVS 250040Z 07008KT 08/M08 A3014 RMK A01 T00821084  RH  030%=      5-min Rain = 0
KSVS 250045Z 07007KT 07/M08 A3014 RMK A01 T00731083  RH  032%=      5-min Rain = 0
KSVS 250050Z 07007KT 07/M08 A3015 RMK A01 T00671083  RH  033%=      5-min Rain = 0
KSVS 250055Z 08007KT 06/M08 A3015 RMK A01 T00621084  RH  034%=      5-min Rain = 0
KSVS 250100Z 07007KT 06/M08 A3015 RMK A01 T00601083  RH  035%=      5-min Rain = 0
KSVS 250105Z 07006KT 06/M08 A3016 RMK A01 T00581083  RH  036%=      5-min Rain = 0
KSVS 250110Z 07008KT 06/M08 A3016 RMK A01 T00591084  RH  035%=      5-min Rain = 0
KSVS 250115Z 07006KT 05/M08 A3016 RMK A01 T00501084  RH  037%=      5-min Rain = 0
KSVS 250120Z 07006KT 05/M08 A3017 RMK A01 T00501084  RH  037%=      5-min Rain = 0
KSVS 250125Z 07006KT 05/M09 A3017 RMK A01 T00531085  RH  036%=      5-min Rain = 0
KSVS 250130Z 06007KT 05/M09 A3017 RMK A01 T00471089  RH  036%=      5-min Rain = 0
KSVS 250135Z 07007KT 04/M09 A3018 RMK A01 T00391090  RH  038%=      5-min Rain = 0
KSVS 250140Z 06007KT 04/M09 A3018 RMK A01 T00381089  RH  039%=      5-min Rain = 0
KSVS 250145Z 06008KT 04/M09 A3018 RMK A01 T00381088  RH  039%=      5-min Rain = 0
KSVS 250150Z 07008KT 04/M09 A3018 RMK A01 T00391086  RH  039%=      5-min Rain = 0
KSVS 250155Z 07008KT 04/M09 A3019 RMK A01 T00411085  RH  039%=      5-min Rain = 0
KSVS 250200Z 07008KT 04/M09 A3019 RMK A01 T00401085  RH  040%=      5-min Rain = 0
KSVS 250205Z 07008KT 04/M08 A3019 RMK A01 T00381084  RH  040%=      5-min Rain = 0
KSVS 250210Z 07008KT 04/M08 A3019 RMK A01 T00381083  RH  041%=      5-min Rain = 0
KSVS 250215Z 07009KT 04/M08 A3019 RMK A01 T00391082  RH  041%=      5-min Rain = 0
KSVS 250220Z 08009KT 04/M08 A3019 RMK A01 T00401081  RH  041%=      5-min Rain = 0
KSVS 250225Z 07009KT 04/M08 A3019 RMK A01 T00401080  RH  041%=      5-min Rain = 0
KSVS 250230Z 08010KT 04/M08 A3019 RMK A01 T00401080  RH  041%=      5-min Rain = 0
KSVS 250235Z 07009KT 05/M08 A3019 RMK A01 T00461079  RH  040%=      5-min Rain = 0
KSVS 250240Z 07009KT 05/M08 A302 RMK A01 T00451080  RH  040%=      5-min Rain = 0
KSVS 250245Z 07009KT 05/M08 A302 RMK A01 T00461080  RH  039%=      5-min Rain = 0
KSVS 250250Z 07009KT 04/M08 A302 RMK A01 T00431081  RH  040%=      5-min Rain = 0
KSVS 250255Z 07009KT 04/M08 A302 RMK A01 T00421081  RH  040%=      5-min Rain = 0
KSVS 250300Z 07009KT 05/M08 A302 RMK A01 T00461081  RH  039%=      5-min Rain = 0
KSVS 250305Z 07010KT 05/M08 A302 RMK A01 T00501082  RH  038%=      5-min Rain = 0
KSVS 250310Z 07010KT 05/M08 A302 RMK A01 T00531084  RH  036%=      5-min Rain = 0
KSVS 250315Z 08010KT 05/M09 A302 RMK A01 T00511085  RH  037%=      5-min Rain = 0
KSVS 250320Z 08011KT 05/M09 A302 RMK A01 T00521086  RH  036%=      5-min Rain = 0
KSVS 250325Z 08011KT 06/M09 A302 RMK A01 T00551087  RH  035%=      5-min Rain = 0
KSVS 250330Z 08011KT 05/M09 A302 RMK A01 T00531087  RH  035%=      5-min Rain = 0
KSVS 250335Z 08011KT 05/M09 A302 RMK A01 T00541089  RH  035%=      5-min Rain = 0
KSVS 250340Z 07011KT 05/M09 A3021 RMK A01 T00521089  RH  035%=      5-min Rain = 0
KSVS 250345Z 08011KT 05/M09 A3021 RMK A01 T00511088  RH  036%=      5-min Rain = 0
KSVS 250350Z 08011KT 05/M09 A3021 RMK A01 T00521089  RH  035%=      5-min Rain = 0
KSVS 250355Z 08011KT 05/M09 A3021 RMK A01 T00531089  RH  035%=      5-min Rain = 0
KSVS 250400Z 08010KT 05/M09 A3021 RMK A01 T00511089  RH  035%=      5-min Rain = 0
KSVS 250405Z 08010KT 05/M09 A3021 RMK A01 T00451088  RH  037%=      5-min Rain = 0
KSVS 250410Z 08010KT 05/M09 A3021 RMK A01 T00451087  RH  038%=      5-min Rain = 0
KSVS 250415Z 09010KT 04/M09 A3021 RMK A01 T00431086  RH  038%=      5-min Rain = 0
KSVS 250420Z 09010KT 04/M09 A3021 RMK A01 T00401086  RH  039%=      5-min Rain = 0
KSVS 250425Z 09011KT 04/M09 A3021 RMK A01 T00421085  RH  039%=      5-min Rain = 0
KSVS 250430Z 09012KT 05/M08 A3021 RMK A01 T00451084  RH  039%=      5-min Rain = 0
KSVS 250435Z 09012KT 05/M08 A3021 RMK A01 T00461083  RH  039%=      5-min Rain = 0
KSVS 250440Z 09013KT 05/M08 A3021 RMK A01 T00471083  RH  038%=      5-min Rain = 0
KSVS 250445Z 09014KT 05/M08 A3021 RMK A01 T00501084  RH  037%=      5-min Rain = 0
KSVS 250450Z 09015G20KT 05/M08 A3021 RMK A01 T00501083  RH  037%=      5-min Rain = 0
KSVS 250455Z 09015KT 05/M08 A3021 RMK A01 T00491083  RH  038%=      5-min Rain = 0
KSVS 250500Z 08016KT 05/M08 A3021 RMK A01 T00491082  RH  038%=      5-min Rain = 0
KSVS 250505Z 09015KT 05/M08 A3021 RMK A01 T00461081  RH  039%=      5-min Rain = 0
KSVS 250510Z 09015KT 05/M08 A3021 RMK A01 T00461080  RH  040%=      5-min Rain = 0
KSVS 250515Z 08015KT 04/M08 A3021 RMK A01 T00441078  RH  041%=      5-min Rain = 0
KSVS 250520Z 08015KT 04/M08 A3021 RMK A01 T00441077  RH  041%=      5-min Rain = 0
KSVS 250525Z 09015KT 04/M08 A3021 RMK A01 T00421076  RH  042%=      5-min Rain = 0
KSVS 250530Z 09015KT 04/M08 A3021 RMK A01 T00401076  RH  042%=      5-min Rain = 0
KSVS 250535Z 09015KT 04/M08 A3021 RMK A01 T00391075  RH  043%=      5-min Rain = 0
KSVS 250540Z 09014KT 04/M08 A3021 RMK A01 T00361075  RH  044%=      5-min Rain = 0
KSVS 250545Z 09014KT 04/M07 A3021 RMK A01 T00351074  RH  045%=      5-min Rain = 0
KSVS 250550Z 09014KT 03/M07 A3021 RMK A01 T00331074  RH  045%=      5-min Rain = 0
KSVS 250555Z 09014KT 03/M07 A3021 RMK A01 T00331074  RH  046%=      5-min Rain = 0

Page generated in 0.0083 seconds.